EAG8061 SBPA-SBBR
Flight info
| Callsign | EAG8061 |
|---|---|
| Flight time | 1h 59m |
| Altitude | 37000 |
| Route | PENSO UZ5 VUDOT |
| Aircraft | B738/M-SDE2E3FGHIRWXY/LB1 |
Departure
| Time | 2026-05-03 20:25 |
|---|---|
| Airport | Porto Alegre-Salgado Filho International Airport (SBPA) |
Arrival
| Time | 2026-05-03 22:24 |
|---|---|
| Airport | Presidente Juscelino Kubitschek International Airport (SBBR) |
| Time | Latitude | Longitude | Altitude | Speed | Heading |
|---|---|---|---|---|---|
| 2026-05-03 20:15 | -29.99169 | -51.17623 | 19 ft | 0 kts | 272° |
| 2026-05-03 20:16 | -29.99168 | -51.17638 | 19 ft | 5 kts | 271° |
| 2026-05-03 20:16 | -29.99188 | -51.17689 | 19 ft | 8 kts | 207° |
| 2026-05-03 20:16 | -29.99239 | -51.17696 | 19 ft | 7 kts | 186° |
| 2026-05-03 20:17 | -29.99277 | -51.17730 | 19 ft | 7 kts | 245° |
| 2026-05-03 20:17 | -29.99285 | -51.17785 | 19 ft | 7 kts | 269° |
| 2026-05-03 20:17 | -29.99283 | -51.17838 | 19 ft | 7 kts | 274° |
| 2026-05-03 20:17 | -29.99280 | -51.17891 | 19 ft | 6 kts | 270° |
| 2026-05-03 20:18 | -29.99280 | -51.17942 | 19 ft | 6 kts | 270° |
| 2026-05-03 20:18 | -29.99283 | -51.17992 | 19 ft | 6 kts | 261° |
| 2026-05-03 20:18 | -29.99297 | -51.18037 | 19 ft | 6 kts | 247° |
| 2026-05-03 20:18 | -29.99312 | -51.18081 | 19 ft | 6 kts | 251° |
| 2026-05-03 20:19 | -29.99324 | -51.18123 | 19 ft | 6 kts | 251° |
| 2026-05-03 20:19 | -29.99331 | -51.18144 | 19 ft | 0 kts | 248° |
| 2026-05-03 20:22 | -29.99333 | -51.18150 | 19 ft | 3 kts | 248° |
| 2026-05-03 20:23 | -29.99345 | -51.18182 | 19 ft | 10 kts | 249° |
| 2026-05-03 20:23 | -29.99411 | -51.18265 | 19 ft | 11 kts | 202° |
| 2026-05-03 20:23 | -29.99443 | -51.18238 | 19 ft | 11 kts | 82° |
| 2026-05-03 20:23 | -29.99441 | -51.18170 | 19 ft | 8 kts | 92° |
| 2026-05-03 20:24 | -29.99442 | -51.18061 | 19 ft | 28 kts | 91° |
| 2026-05-03 20:24 | -29.99452 | -51.17577 | 19 ft | 92 kts | 91° |
| 2026-05-03 20:24 | -29.99471 | -51.16610 | 22 ft | 147 kts | 91° |
| 2026-05-03 20:24 | -29.99515 | -51.15307 | 350 ft | 173 kts | 91° |
| 2026-05-03 20:25 | -29.99554 | -51.13892 | 1089 ft | 176 kts | 91° |
| 2026-05-03 20:25 | -29.99568 | -51.12537 | 2091 ft | 165 kts | 92° |
| 2026-05-03 20:25 | -29.99589 | -51.11161 | 2656 ft | 183 kts | 92° |
| 2026-05-03 20:25 | -29.99614 | -51.09582 | 3012 ft | 209 kts | 92° |
| 2026-05-03 20:26 | -29.99643 | -51.07790 | 3318 ft | 238 kts | 92° |
| 2026-05-03 20:26 | -29.99667 | -51.05829 | 3850 ft | 257 kts | 90° |
| 2026-05-03 20:26 | -29.99234 | -51.03767 | 4432 ft | 277 kts | 61° |
| 2026-05-03 20:26 | -29.97897 | -51.02164 | 5243 ft | 278 kts | 33° |
| 2026-05-03 20:27 | -29.96224 | -51.01056 | 6201 ft | 278 kts | 24° |
| 2026-05-03 20:27 | -29.94436 | -51.00154 | 7030 ft | 283 kts | 19° |
| 2026-05-03 20:27 | -29.92603 | -50.99269 | 7864 ft | 288 kts | 20° |
| 2026-05-03 20:27 | -29.90761 | -50.98298 | 8685 ft | 294 kts | 21° |
| 2026-05-03 20:28 | -29.88901 | -50.97273 | 9490 ft | 299 kts | 21° |
| 2026-05-03 20:28 | -29.87016 | -50.96215 | 10279 ft | 304 kts | 21° |
| 2026-05-03 20:28 | -29.85087 | -50.95125 | 10985 ft | 313 kts | 21° |
| 2026-05-03 20:28 | -29.83070 | -50.93985 | 11353 ft | 333 kts | 21° |
| 2026-05-03 20:29 | -29.80917 | -50.92831 | 11658 ft | 350 kts | 16° |
| 2026-05-03 20:29 | -29.78542 | -50.92080 | 12178 ft | 355 kts | 5° |
| 2026-05-03 20:29 | -29.76079 | -50.91803 | 12855 ft | 357 kts | 357° |
| 2026-05-03 20:29 | -29.73572 | -50.91805 | 13534 ft | 360 kts | 353° |
| 2026-05-03 20:30 | -29.71052 | -50.91918 | 14196 ft | 365 kts | 352° |
| 2026-05-03 20:30 | -29.68494 | -50.92026 | 14858 ft | 370 kts | 353° |
| 2026-05-03 20:30 | -29.65943 | -50.92112 | 15531 ft | 373 kts | 353° |
| 2026-05-03 20:30 | -29.63334 | -50.92186 | 16185 ft | 377 kts | 353° |
| 2026-05-03 20:31 | -29.60690 | -50.92254 | 16822 ft | 381 kts | 354° |
| 2026-05-03 20:31 | -29.58030 | -50.92318 | 17439 ft | 385 kts | 354° |
| 2026-05-03 20:31 | -29.55333 | -50.92380 | 18044 ft | 388 kts | 354° |
| 2026-05-03 20:31 | -29.52612 | -50.92441 | 18633 ft | 392 kts | 354° |
| 2026-05-03 20:32 | -29.49879 | -50.92501 | 19204 ft | 395 kts | 354° |
| 2026-05-03 20:32 | -29.47114 | -50.92561 | 19781 ft | 398 kts | 354° |
| 2026-05-03 20:32 | -29.44329 | -50.92622 | 20346 ft | 401 kts | 354° |
| 2026-05-03 20:32 | -29.41565 | -50.92682 | 20892 ft | 404 kts | 354° |
| 2026-05-03 20:33 | -29.38711 | -50.92744 | 21438 ft | 407 kts | 354° |
| 2026-05-03 20:33 | -29.35899 | -50.92805 | 21957 ft | 410 kts | 354° |
| 2026-05-03 20:33 | -29.33038 | -50.92867 | 22464 ft | 413 kts | 354° |
| 2026-05-03 20:33 | -29.30157 | -50.92930 | 22957 ft | 416 kts | 354° |
| 2026-05-03 20:34 | -29.27258 | -50.92982 | 23437 ft | 418 kts | 354° |
| 2026-05-03 20:34 | -29.24333 | -50.93053 | 23909 ft | 421 kts | 354° |
| 2026-05-03 20:34 | -29.21400 | -50.93128 | 24369 ft | 423 kts | 353° |
| 2026-05-03 20:34 | -29.18464 | -50.93402 | 24819 ft | 423 kts | 348° |
| 2026-05-03 20:35 | -29.15539 | -50.93869 | 25251 ft | 424 kts | 346° |
| 2026-05-03 20:35 | -29.12617 | -50.94379 | 25675 ft | 427 kts | 346° |
| 2026-05-03 20:35 | -29.09653 | -50.94878 | 25933 ft | 435 kts | 346° |
| 2026-05-03 20:35 | -29.06626 | -50.95373 | 26040 ft | 444 kts | 346° |
| 2026-05-03 20:36 | -29.04077 | -50.95782 | 26133 ft | 452 kts | 347° |
| 2026-05-03 20:36 | -29.00941 | -50.96281 | 26228 ft | 460 kts | 347° |
| 2026-05-03 20:36 | -28.97730 | -50.96790 | 26314 ft | 468 kts | 347° |
| 2026-05-03 20:36 | -28.94478 | -50.97304 | 26422 ft | 474 kts | 347° |
| 2026-05-03 20:37 | -28.91232 | -50.97817 | 26641 ft | 477 kts | 347° |
| 2026-05-03 20:37 | -28.87935 | -50.98337 | 26905 ft | 479 kts | 346° |
| 2026-05-03 20:37 | -28.84632 | -50.98819 | 27161 ft | 483 kts | 349° |
| 2026-05-03 20:37 | -28.81236 | -50.98988 | 27411 ft | 490 kts | 354° |
| 2026-05-03 20:38 | -28.77814 | -50.98775 | 27720 ft | 495 kts | 0° |
| 2026-05-03 20:38 | -28.74392 | -50.98223 | 28081 ft | 498 kts | 4° |
| 2026-05-03 20:38 | -28.70986 | -50.97473 | 28404 ft | 500 kts | 6° |
| 2026-05-03 20:38 | -28.67581 | -50.96648 | 28715 ft | 499 kts | 6° |
| 2026-05-03 20:39 | -28.64185 | -50.95843 | 28943 ft | 499 kts | 5° |
| 2026-05-03 20:39 | -28.60776 | -50.95047 | 29186 ft | 499 kts | 5° |
| 2026-05-03 20:39 | -28.57364 | -50.94258 | 29436 ft | 499 kts | 5° |
| 2026-05-03 20:39 | -28.54000 | -50.93483 | 29682 ft | 499 kts | 5° |
| 2026-05-03 20:40 | -28.53091 | -50.93274 | 29749 ft | 499 kts | 5° |
| 2026-05-03 20:40 | -28.51567 | -50.92924 | 29861 ft | 499 kts | 4° |
| 2026-05-03 20:40 | -28.48155 | -50.92142 | 30111 ft | 499 kts | 4° |
| 2026-05-03 20:40 | -28.44742 | -50.91357 | 30360 ft | 499 kts | 4° |
| 2026-05-03 20:41 | -28.41333 | -50.90573 | 30611 ft | 499 kts | 4° |
| 2026-05-03 20:41 | -28.37933 | -50.89794 | 30860 ft | 499 kts | 4° |
| 2026-05-03 20:41 | -28.34530 | -50.89011 | 31107 ft | 499 kts | 4° |
| 2026-05-03 20:41 | -28.31156 | -50.88238 | 31352 ft | 499 kts | 4° |
| 2026-05-03 20:42 | -28.27720 | -50.87453 | 31710 ft | 496 kts | 4° |
| 2026-05-03 20:42 | -28.24333 | -50.86681 | 31981 ft | 496 kts | 4° |
| 2026-05-03 20:42 | -28.20978 | -50.85917 | 32141 ft | 497 kts | 4° |
| 2026-05-03 20:42 | -28.17582 | -50.85144 | 32374 ft | 497 kts | 4° |
| 2026-05-03 20:43 | -28.14193 | -50.84373 | 32630 ft | 497 kts | 4° |
| 2026-05-03 20:43 | -28.10807 | -50.83604 | 32873 ft | 496 kts | 4° |
| 2026-05-03 20:43 | -28.07418 | -50.82834 | 33092 ft | 496 kts | 4° |
| 2026-05-03 20:43 | -28.04026 | -50.82048 | 33278 ft | 498 kts | 5° |
| 2026-05-03 20:44 | -28.00654 | -50.81091 | 33518 ft | 501 kts | 8° |
| 2026-05-03 20:44 | -27.97297 | -50.80004 | 33720 ft | 502 kts | 9° |
| 2026-05-03 20:44 | -27.93936 | -50.78898 | 33942 ft | 502 kts | 8° |
| 2026-05-03 20:44 | -27.90579 | -50.77818 | 34179 ft | 501 kts | 8° |
| 2026-05-03 20:45 | -27.87227 | -50.76755 | 34395 ft | 500 kts | 8° |
| 2026-05-03 20:45 | -27.83861 | -50.75694 | 34619 ft | 500 kts | 8° |
| 2026-05-03 20:45 | -27.80505 | -50.74640 | 34838 ft | 500 kts | 8° |
| 2026-05-03 20:45 | -27.77198 | -50.73604 | 35054 ft | 499 kts | 8° |
| 2026-05-03 20:46 | -27.73809 | -50.72544 | 35267 ft | 499 kts | 8° |
| 2026-05-03 20:46 | -27.70504 | -50.71500 | 35480 ft | 499 kts | 8° |
| 2026-05-03 20:46 | -27.67167 | -50.70451 | 35684 ft | 499 kts | 8° |
| 2026-05-03 20:46 | -27.63821 | -50.69404 | 35883 ft | 498 kts | 8° |
| 2026-05-03 20:47 | -27.60472 | -50.68359 | 36085 ft | 498 kts | 8° |
| 2026-05-03 20:47 | -27.57126 | -50.67316 | 36276 ft | 498 kts | 8° |
| 2026-05-03 20:47 | -27.53791 | -50.66278 | 36472 ft | 498 kts | 8° |
| 2026-05-03 20:47 | -27.50447 | -50.65237 | 36663 ft | 497 kts | 8° |
| 2026-05-03 20:48 | -27.47100 | -50.64196 | 36855 ft | 497 kts | 8° |
| 2026-05-03 20:48 | -27.43807 | -50.63172 | 37039 ft | 497 kts | 8° |
| 2026-05-03 20:48 | -27.40476 | -50.62135 | 37201 ft | 497 kts | 8° |
| 2026-05-03 20:49 | -27.33784 | -50.60052 | 37211 ft | 498 kts | 8° |
| 2026-05-03 20:49 | -27.27114 | -50.57981 | 37217 ft | 496 kts | 8° |
| 2026-05-03 20:50 | -27.20464 | -50.55918 | 37218 ft | 496 kts | 8° |
| 2026-05-03 20:50 | -27.13841 | -50.53875 | 37218 ft | 496 kts | 8° |
| 2026-05-03 20:51 | -27.07164 | -50.51818 | 37218 ft | 497 kts | 8° |
| 2026-05-03 20:51 | -27.00496 | -50.49762 | 37220 ft | 497 kts | 8° |
| 2026-05-03 20:52 | -26.93855 | -50.47717 | 37220 ft | 497 kts | 8° |
| 2026-05-03 20:52 | -26.87183 | -50.45663 | 37221 ft | 497 kts | 8° |
| 2026-05-03 20:53 | -26.80520 | -50.43603 | 37222 ft | 497 kts | 8° |
| 2026-05-03 20:53 | -26.73833 | -50.41549 | 37222 ft | 497 kts | 8° |
| 2026-05-03 20:54 | -26.67165 | -50.39504 | 37224 ft | 497 kts | 8° |
| 2026-05-03 20:54 | -26.57140 | -50.36435 | 37222 ft | 497 kts | 8° |
| 2026-05-03 20:55 | -26.50504 | -50.34406 | 37226 ft | 498 kts | 8° |
| 2026-05-03 20:55 | -26.43804 | -50.32361 | 37229 ft | 498 kts | 8° |
| 2026-05-03 20:56 | -26.37115 | -50.30321 | 37229 ft | 498 kts | 8° |
| 2026-05-03 20:56 | -26.30420 | -50.28281 | 37230 ft | 498 kts | 8° |
| 2026-05-03 20:57 | -26.23707 | -50.26237 | 37246 ft | 501 kts | 7° |
| 2026-05-03 20:57 | -26.16981 | -50.24183 | 37254 ft | 501 kts | 7° |
| 2026-05-03 20:58 | -26.10295 | -50.22148 | 37255 ft | 501 kts | 7° |
| 2026-05-03 20:58 | -26.03574 | -50.20100 | 37255 ft | 501 kts | 7° |
| 2026-05-03 20:59 | -25.96852 | -50.18062 | 37255 ft | 500 kts | 7° |
| 2026-05-03 20:59 | -25.90126 | -50.16027 | 37255 ft | 501 kts | 7° |
| 2026-05-03 21:00 | -25.85621 | -50.14665 | 37256 ft | 501 kts | 7° |
| 2026-05-03 21:00 | -25.76672 | -50.11960 | 37257 ft | 501 kts | 7° |
| 2026-05-03 21:01 | -25.69985 | -50.09944 | 37261 ft | 500 kts | 7° |
| 2026-05-03 21:01 | -25.63256 | -50.07920 | 37260 ft | 501 kts | 7° |
| 2026-05-03 21:02 | -25.56530 | -50.05898 | 37261 ft | 501 kts | 7° |
| 2026-05-03 21:02 | -25.49791 | -50.03893 | 37261 ft | 501 kts | 7° |
| 2026-05-03 21:03 | -25.43061 | -50.01900 | 37260 ft | 500 kts | 7° |
| 2026-05-03 21:03 | -25.36333 | -49.99910 | 37260 ft | 500 kts | 7° |
| 2026-05-03 21:04 | -25.29604 | -49.97921 | 37260 ft | 500 kts | 7° |
| 2026-05-03 21:04 | -25.22918 | -49.95951 | 37260 ft | 500 kts | 7° |
| 2026-05-03 21:05 | -25.16165 | -49.93961 | 37273 ft | 502 kts | 6° |
| 2026-05-03 21:05 | -25.10544 | -49.92307 | 37280 ft | 503 kts | 6° |
| 2026-05-03 21:06 | -25.02641 | -49.89975 | 37281 ft | 502 kts | 6° |
| 2026-05-03 21:06 | -24.95931 | -49.88004 | 37283 ft | 503 kts | 6° |
| 2026-05-03 21:07 | -24.89173 | -49.86022 | 37282 ft | 501 kts | 6° |
| 2026-05-03 21:07 | -24.82433 | -49.84048 | 37282 ft | 501 kts | 6° |
| 2026-05-03 21:08 | -24.75705 | -49.82026 | 37281 ft | 502 kts | 7° |
| 2026-05-03 21:08 | -24.70063 | -49.80267 | 37281 ft | 502 kts | 7° |
| 2026-05-03 21:09 | -24.63385 | -49.78203 | 37280 ft | 502 kts | 7° |
| 2026-05-03 21:09 | -24.56648 | -49.76127 | 37282 ft | 502 kts | 7° |
| 2026-05-03 21:10 | -24.49917 | -49.74055 | 37282 ft | 502 kts | 7° |
| 2026-05-03 21:10 | -24.43193 | -49.71997 | 37282 ft | 501 kts | 6° |
| 2026-05-03 21:11 | -24.36416 | -49.70269 | 37289 ft | 499 kts | 4° |
| 2026-05-03 21:11 | -24.29656 | -49.68558 | 37285 ft | 499 kts | 4° |
| 2026-05-03 21:12 | -24.22941 | -49.66832 | 37281 ft | 499 kts | 4° |
| 2026-05-03 21:12 | -24.16137 | -49.65080 | 37281 ft | 499 kts | 4° |
| 2026-05-03 21:13 | -24.09425 | -49.63353 | 37278 ft | 499 kts | 4° |
| 2026-05-03 21:13 | -24.02682 | -49.61519 | 37284 ft | 501 kts | 6° |
| 2026-05-03 21:14 | -23.95921 | -49.59606 | 37287 ft | 501 kts | 5° |
| 2026-05-03 21:14 | -23.89174 | -49.57715 | 37288 ft | 501 kts | 5° |
| 2026-05-03 21:15 | -23.82406 | -49.55823 | 37289 ft | 501 kts | 5° |
| 2026-05-03 21:15 | -23.75655 | -49.53939 | 37267 ft | 499 kts | 6° |
| 2026-05-03 21:16 | -23.68928 | -49.52057 | 37247 ft | 498 kts | 6° |
| 2026-05-03 21:16 | -23.62223 | -49.50181 | 37238 ft | 498 kts | 6° |
| 2026-05-03 21:17 | -23.55583 | -49.48087 | 37240 ft | 500 kts | 8° |
| 2026-05-03 21:17 | -23.48898 | -49.45988 | 37238 ft | 498 kts | 7° |
| 2026-05-03 21:18 | -23.42219 | -49.43908 | 37247 ft | 499 kts | 7° |
| 2026-05-03 21:18 | -23.35488 | -49.42243 | 37253 ft | 495 kts | 3° |
| 2026-05-03 21:19 | -23.28768 | -49.40643 | 37252 ft | 494 kts | 4° |
| 2026-05-03 21:19 | -23.22039 | -49.39005 | 37260 ft | 496 kts | 4° |
| 2026-05-03 21:20 | -23.15366 | -49.37219 | 37260 ft | 497 kts | 6° |
| 2026-05-03 21:20 | -23.08686 | -49.35351 | 37264 ft | 496 kts | 5° |
| 2026-05-03 21:21 | -23.01976 | -49.33500 | 37268 ft | 497 kts | 5° |
| 2026-05-03 21:21 | -22.95266 | -49.31655 | 37272 ft | 497 kts | 5° |
| 2026-05-03 21:22 | -22.88533 | -49.29803 | 37277 ft | 499 kts | 5° |
| 2026-05-03 21:22 | -22.81815 | -49.27951 | 37278 ft | 498 kts | 5° |
| 2026-05-03 21:23 | -22.75092 | -49.26104 | 37281 ft | 498 kts | 5° |
| 2026-05-03 21:23 | -22.68387 | -49.24264 | 37283 ft | 497 kts | 5° |
| 2026-05-03 21:24 | -22.61676 | -49.22424 | 37284 ft | 497 kts | 5° |
| 2026-05-03 21:24 | -22.56226 | -49.20930 | 37288 ft | 497 kts | 5° |
| 2026-05-03 21:25 | -22.49575 | -49.19032 | 37289 ft | 496 kts | 5° |
| 2026-05-03 21:25 | -22.42888 | -49.17129 | 37289 ft | 497 kts | 5° |
| 2026-05-03 21:26 | -22.36200 | -49.15278 | 37289 ft | 494 kts | 4° |
| 2026-05-03 21:26 | -22.29485 | -49.13663 | 37289 ft | 494 kts | 3° |
| 2026-05-03 21:27 | -22.22786 | -49.12017 | 37289 ft | 494 kts | 4° |
| 2026-05-03 21:27 | -22.16118 | -49.10373 | 37283 ft | 494 kts | 4° |
| 2026-05-03 21:28 | -22.09433 | -49.08719 | 37203 ft | 491 kts | 6° |
| 2026-05-03 21:28 | -22.02789 | -49.07072 | 37171 ft | 490 kts | 6° |
| 2026-05-03 21:29 | -21.96129 | -49.05432 | 37161 ft | 491 kts | 6° |
| 2026-05-03 21:29 | -21.89457 | -49.03790 | 37163 ft | 491 kts | 6° |
| 2026-05-03 21:30 | -21.83575 | -49.02343 | 37166 ft | 492 kts | 6° |
| 2026-05-03 21:30 | -21.77016 | -49.00730 | 37170 ft | 492 kts | 6° |
| 2026-05-03 21:31 | -21.70322 | -48.99085 | 37172 ft | 492 kts | 6° |
| 2026-05-03 21:31 | -21.63650 | -48.97516 | 37179 ft | 490 kts | 2° |
| 2026-05-03 21:32 | -21.56970 | -48.96476 | 37182 ft | 487 kts | 0° |
| 2026-05-03 21:32 | -21.50220 | -48.95437 | 37186 ft | 488 kts | 1° |
| 2026-05-03 21:33 | -21.43544 | -48.94374 | 37186 ft | 488 kts | 1° |
| 2026-05-03 21:33 | -21.36824 | -48.93298 | 37186 ft | 488 kts | 1° |
| 2026-05-03 21:34 | -21.30093 | -48.92221 | 37188 ft | 488 kts | 1° |
| 2026-05-03 21:34 | -21.23375 | -48.91146 | 37187 ft | 488 kts | 1° |
| 2026-05-03 21:35 | -21.16654 | -48.90071 | 37186 ft | 488 kts | 1° |
| 2026-05-03 21:35 | -21.09933 | -48.88998 | 37187 ft | 488 kts | 1° |
| 2026-05-03 21:36 | -21.03404 | -48.87953 | 37186 ft | 488 kts | 1° |
| 2026-05-03 21:36 | -20.96751 | -48.86891 | 37186 ft | 487 kts | 0° |
| 2026-05-03 21:37 | -20.90042 | -48.85822 | 37182 ft | 487 kts | 0° |
| 2026-05-03 21:37 | -20.83332 | -48.84754 | 37177 ft | 487 kts | 0° |
| 2026-05-03 21:38 | -20.76627 | -48.83688 | 37181 ft | 487 kts | 0° |
| 2026-05-03 21:38 | -20.69925 | -48.82623 | 37174 ft | 487 kts | 1° |
| 2026-05-03 21:39 | -20.63211 | -48.81712 | 37171 ft | 483 kts | 357° |
| 2026-05-03 21:39 | -20.56517 | -48.81087 | 37166 ft | 483 kts | 358° |
| 2026-05-03 21:40 | -20.49808 | -48.80403 | 37152 ft | 484 kts | 358° |
| 2026-05-03 21:40 | -20.43113 | -48.79706 | 37147 ft | 484 kts | 358° |
| 2026-05-03 21:41 | -20.36402 | -48.79004 | 37146 ft | 484 kts | 358° |
| 2026-05-03 21:41 | -20.29703 | -48.78304 | 37146 ft | 484 kts | 358° |
| 2026-05-03 21:42 | -20.22995 | -48.77608 | 37140 ft | 484 kts | 359° |
| 2026-05-03 21:42 | -20.16285 | -48.76903 | 37131 ft | 484 kts | 359° |
| 2026-05-03 21:43 | -20.09606 | -48.76202 | 37129 ft | 484 kts | 360° |
| 2026-05-03 21:43 | -20.02902 | -48.75501 | 37129 ft | 484 kts | 359° |
| 2026-05-03 21:44 | -19.96185 | -48.74800 | 37128 ft | 484 kts | 360° |
| 2026-05-03 21:44 | -19.89483 | -48.74098 | 37125 ft | 484 kts | 360° |
| 2026-05-03 21:45 | -19.82773 | -48.73397 | 37126 ft | 484 kts | 360° |
| 2026-05-03 21:45 | -19.76061 | -48.72697 | 37125 ft | 484 kts | 360° |
| 2026-05-03 21:46 | -19.69353 | -48.71998 | 37124 ft | 484 kts | 360° |
| 2026-05-03 21:46 | -19.62692 | -48.71304 | 37127 ft | 484 kts | 360° |
| 2026-05-03 21:47 | -19.55982 | -48.70607 | 37126 ft | 484 kts | 360° |
| 2026-05-03 21:47 | -19.49278 | -48.69909 | 37127 ft | 484 kts | 360° |
| 2026-05-03 21:48 | -19.42557 | -48.69210 | 37129 ft | 484 kts | 359° |
| 2026-05-03 21:48 | -19.35845 | -48.68516 | 37140 ft | 485 kts | 0° |
| 2026-05-03 21:49 | -19.29179 | -48.67824 | 37148 ft | 485 kts | 0° |
| 2026-05-03 21:49 | -19.22465 | -48.67129 | 37152 ft | 485 kts | 1° |
| 2026-05-03 21:50 | -19.15744 | -48.66436 | 37153 ft | 484 kts | 0° |
| 2026-05-03 21:50 | -19.09025 | -48.65833 | 37158 ft | 484 kts | 0° |
| 2026-05-03 21:51 | -19.02307 | -48.65227 | 37160 ft | 484 kts | 0° |
| 2026-05-03 21:51 | -18.95592 | -48.64616 | 37162 ft | 485 kts | 0° |
| 2026-05-03 21:52 | -18.88859 | -48.64005 | 37164 ft | 485 kts | 0° |
| 2026-05-03 21:52 | -18.82142 | -48.63396 | 37170 ft | 484 kts | 0° |
| 2026-05-03 21:53 | -18.75456 | -48.62790 | 37171 ft | 485 kts | 0° |
| 2026-05-03 21:53 | -18.68731 | -48.62182 | 37171 ft | 485 kts | 0° |
| 2026-05-03 21:54 | -18.62011 | -48.61574 | 37171 ft | 485 kts | 0° |
| 2026-05-03 21:54 | -18.55280 | -48.60964 | 37170 ft | 485 kts | 0° |
| 2026-05-03 21:55 | -18.49691 | -48.60460 | 37171 ft | 485 kts | 0° |
| 2026-05-03 21:55 | -18.42969 | -48.59853 | 37171 ft | 485 kts | 0° |
| 2026-05-03 21:56 | -18.35145 | -48.59148 | 37171 ft | 485 kts | 0° |
| 2026-05-03 21:56 | -18.28458 | -48.58017 | 37171 ft | 491 kts | 10° |
| 2026-05-03 21:57 | -18.22993 | -48.56297 | 37171 ft | 494 kts | 13° |
| 2026-05-03 21:57 | -18.16452 | -48.54088 | 37171 ft | 493 kts | 13° |
| 2026-05-03 21:58 | -18.09912 | -48.51909 | 37171 ft | 493 kts | 13° |
| 2026-05-03 21:58 | -18.03345 | -48.49733 | 37171 ft | 493 kts | 13° |
| 2026-05-03 21:59 | -17.96798 | -48.47567 | 37171 ft | 493 kts | 13° |
| 2026-05-03 21:59 | -17.90249 | -48.45398 | 37171 ft | 494 kts | 13° |
| 2026-05-03 22:00 | -17.83690 | -48.43230 | 37171 ft | 494 kts | 13° |
| 2026-05-03 22:00 | -17.77130 | -48.41066 | 37171 ft | 494 kts | 13° |
| 2026-05-03 22:01 | -17.70567 | -48.38903 | 37171 ft | 494 kts | 13° |
| 2026-05-03 22:01 | -17.64048 | -48.36756 | 37171 ft | 494 kts | 13° |
| 2026-05-03 22:02 | -17.57489 | -48.34597 | 37171 ft | 494 kts | 13° |
| 2026-05-03 22:02 | -17.54201 | -48.33516 | 36985 ft | 497 kts | 13° |
| 2026-05-03 22:02 | -17.50898 | -48.32430 | 36503 ft | 495 kts | 13° |
| 2026-05-03 22:03 | -17.47605 | -48.31349 | 35692 ft | 496 kts | 13° |
| 2026-05-03 22:03 | -17.44311 | -48.30266 | 34923 ft | 496 kts | 13° |
| 2026-05-03 22:03 | -17.41010 | -48.29182 | 34142 ft | 496 kts | 13° |
| 2026-05-03 22:03 | -17.37716 | -48.28100 | 33350 ft | 496 kts | 13° |
| 2026-05-03 22:04 | -17.34418 | -48.27018 | 32542 ft | 497 kts | 13° |
| 2026-05-03 22:04 | -17.31117 | -48.25935 | 31714 ft | 497 kts | 13° |
| 2026-05-03 22:04 | -17.27817 | -48.24853 | 30866 ft | 497 kts | 14° |
| 2026-05-03 22:04 | -17.24514 | -48.23770 | 29994 ft | 497 kts | 14° |
| 2026-05-03 22:05 | -17.21252 | -48.22702 | 29128 ft | 498 kts | 14° |
| 2026-05-03 22:05 | -17.17921 | -48.21610 | 28222 ft | 498 kts | 14° |
| 2026-05-03 22:05 | -17.14600 | -48.20523 | 27292 ft | 499 kts | 14° |
| 2026-05-03 22:05 | -17.11326 | -48.19451 | 26345 ft | 500 kts | 14° |
| 2026-05-03 22:06 | -17.08014 | -48.18367 | 25548 ft | 497 kts | 15° |
| 2026-05-03 22:06 | -17.04728 | -48.17289 | 24821 ft | 492 kts | 15° |
| 2026-05-03 22:06 | -17.01474 | -48.16224 | 24096 ft | 487 kts | 15° |
| 2026-05-03 22:06 | -16.98261 | -48.15174 | 23376 ft | 483 kts | 15° |
| 2026-05-03 22:07 | -16.95059 | -48.14129 | 22652 ft | 479 kts | 15° |
| 2026-05-03 22:07 | -16.91898 | -48.13098 | 21935 ft | 474 kts | 15° |
| 2026-05-03 22:07 | -16.88762 | -48.12074 | 21221 ft | 469 kts | 15° |
| 2026-05-03 22:07 | -16.85651 | -48.11058 | 20510 ft | 464 kts | 15° |
| 2026-05-03 22:08 | -16.82582 | -48.10059 | 19802 ft | 460 kts | 15° |
| 2026-05-03 22:08 | -16.79485 | -48.09312 | 19090 ft | 453 kts | 7° |
| 2026-05-03 22:08 | -16.76371 | -48.09124 | 18586 ft | 443 kts | 358° |
| 2026-05-03 22:08 | -16.73318 | -48.09420 | 17760 ft | 440 kts | 351° |
| 2026-05-03 22:09 | -16.70317 | -48.09989 | 17093 ft | 436 kts | 348° |
| 2026-05-03 22:09 | -16.67403 | -48.10652 | 16320 ft | 434 kts | 346° |
| 2026-05-03 22:09 | -16.64445 | -48.11351 | 15524 ft | 434 kts | 347° |
| 2026-05-03 22:10 | -16.58573 | -48.12707 | 14104 ft | 429 kts | 348° |
| 2026-05-03 22:10 | -16.55668 | -48.13369 | 13502 ft | 424 kts | 348° |
| 2026-05-03 22:10 | -16.52797 | -48.14020 | 12892 ft | 419 kts | 348° |
| 2026-05-03 22:10 | -16.49950 | -48.14664 | 12329 ft | 414 kts | 348° |
| 2026-05-03 22:11 | -16.47187 | -48.15288 | 11806 ft | 408 kts | 348° |
| 2026-05-03 22:11 | -16.44459 | -48.15904 | 11274 ft | 402 kts | 348° |
| 2026-05-03 22:11 | -16.41732 | -48.16519 | 11081 ft | 388 kts | 348° |
| 2026-05-03 22:11 | -16.39175 | -48.17096 | 10993 ft | 373 kts | 349° |
| 2026-05-03 22:12 | -16.36679 | -48.17659 | 10913 ft | 359 kts | 349° |
| 2026-05-03 22:12 | -16.34273 | -48.18202 | 10840 ft | 346 kts | 349° |
| 2026-05-03 22:12 | -16.31956 | -48.18724 | 10771 ft | 335 kts | 349° |
| 2026-05-03 22:12 | -16.29721 | -48.19228 | 10706 ft | 324 kts | 349° |
| 2026-05-03 22:13 | -16.27547 | -48.19718 | 10644 ft | 313 kts | 349° |
| 2026-05-03 22:13 | -16.25584 | -48.20158 | 10584 ft | 304 kts | 349° |
| 2026-05-03 22:13 | -16.23541 | -48.20617 | 10503 ft | 296 kts | 349° |
| 2026-05-03 22:13 | -16.21538 | -48.21065 | 10313 ft | 292 kts | 349° |
| 2026-05-03 22:14 | -16.19569 | -48.21507 | 10173 ft | 287 kts | 349° |
| 2026-05-03 22:14 | -16.17639 | -48.21939 | 10073 ft | 280 kts | 349° |
| 2026-05-03 22:14 | -16.15756 | -48.22217 | 9965 ft | 273 kts | 0° |
| 2026-05-03 22:14 | -16.13899 | -48.22057 | 9870 ft | 265 kts | 11° |
| 2026-05-03 22:15 | -16.12101 | -48.21676 | 9689 ft | 262 kts | 15° |
| 2026-05-03 22:15 | -16.10342 | -48.21213 | 9470 ft | 261 kts | 16° |
| 2026-05-03 22:15 | -16.08586 | -48.20745 | 9255 ft | 260 kts | 16° |
| 2026-05-03 22:15 | -16.06841 | -48.20290 | 9043 ft | 259 kts | 16° |
| 2026-05-03 22:16 | -16.05095 | -48.19839 | 8830 ft | 258 kts | 15° |
| 2026-05-03 22:16 | -16.03355 | -48.19392 | 8617 ft | 257 kts | 15° |
| 2026-05-03 22:16 | -16.01626 | -48.18949 | 8449 ft | 254 kts | 15° |
| 2026-05-03 22:16 | -15.99931 | -48.18529 | 8392 ft | 247 kts | 12° |
| 2026-05-03 22:17 | -15.98227 | -48.18511 | 8260 ft | 245 kts | 353° |
| 2026-05-03 22:17 | -15.96574 | -48.18928 | 8091 ft | 244 kts | 345° |
| 2026-05-03 22:17 | -15.94953 | -48.19460 | 7890 ft | 244 kts | 345° |
| 2026-05-03 22:17 | -15.93338 | -48.19963 | 7686 ft | 243 kts | 345° |
| 2026-05-03 22:18 | -15.91681 | -48.20230 | 7405 ft | 240 kts | 9° |
| 2026-05-03 22:18 | -15.90207 | -48.19522 | 7036 ft | 236 kts | 46° |
| 2026-05-03 22:18 | -15.89471 | -48.18068 | 6671 ft | 233 kts | 82° |
| 2026-05-03 22:18 | -15.89489 | -48.16412 | 6404 ft | 230 kts | 95° |
| 2026-05-03 22:19 | -15.89505 | -48.14773 | 6210 ft | 230 kts | 89° |
| 2026-05-03 22:19 | -15.89383 | -48.13100 | 6170 ft | 231 kts | 86° |
| 2026-05-03 22:19 | -15.89204 | -48.11499 | 6199 ft | 221 kts | 84° |
| 2026-05-03 22:19 | -15.89073 | -48.09932 | 6176 ft | 215 kts | 88° |
| 2026-05-03 22:20 | -15.88983 | -48.08392 | 6108 ft | 213 kts | 88° |
| 2026-05-03 22:20 | -15.88888 | -48.06865 | 5871 ft | 212 kts | 88° |
| 2026-05-03 22:20 | -15.88792 | -48.05345 | 5596 ft | 211 kts | 88° |
| 2026-05-03 22:20 | -15.88699 | -48.03874 | 5333 ft | 207 kts | 88° |
| 2026-05-03 22:21 | -15.88653 | -48.03163 | 5215 ft | 206 kts | 88° |
| 2026-05-03 22:21 | -15.88582 | -48.02042 | 5002 ft | 204 kts | 87° |
| 2026-05-03 22:21 | -15.88489 | -48.00598 | 4740 ft | 193 kts | 86° |
| 2026-05-03 22:22 | -15.88403 | -47.99259 | 4482 ft | 180 kts | 86° |
| 2026-05-03 22:22 | -15.88324 | -47.98013 | 4238 ft | 167 kts | 87° |
| 2026-05-03 22:22 | -15.88248 | -47.96833 | 4018 ft | 161 kts | 87° |
| 2026-05-03 22:22 | -15.88169 | -47.95676 | 3761 ft | 159 kts | 88° |
| 2026-05-03 22:23 | -15.88099 | -47.94546 | 3581 ft | 155 kts | 90° |
| 2026-05-03 22:23 | -15.88032 | -47.93449 | 3489 ft | 146 kts | 88° |
| 2026-05-03 22:23 | -15.87978 | -47.92589 | 3487 ft | 94 kts | 86° |
| 2026-05-03 22:23 | -15.87943 | -47.92057 | 3487 ft | 58 kts | 86° |
| 2026-05-03 22:24 | -15.87847 | -47.91760 | 3487 ft | 37 kts | 58° |
| 2026-05-03 22:24 | -15.87739 | -47.91583 | 3487 ft | 25 kts | 54° |
| 2026-05-03 22:24 | -15.87615 | -47.91557 | 3487 ft | 18 kts | 356° |
| 2026-05-03 22:24 | -15.87491 | -47.91565 | 3487 ft | 17 kts | 357° |
| 2026-05-03 22:25 | -15.87373 | -47.91575 | 3488 ft | 17 kts | 354° |
| 2026-05-03 22:25 | -15.87263 | -47.91580 | 3487 ft | 16 kts | 358° |
| 2026-05-03 22:25 | -15.87157 | -47.91586 | 3487 ft | 15 kts | 354° |
| 2026-05-03 22:25 | -15.87059 | -47.91595 | 3487 ft | 14 kts | 356° |
| 2026-05-03 22:26 | -15.86967 | -47.91601 | 3487 ft | 13 kts | 357° |
| 2026-05-03 22:26 | -15.86891 | -47.91629 | 3487 ft | 13 kts | 281° |
| 2026-05-03 22:26 | -15.86895 | -47.91710 | 3487 ft | 10 kts | 265° |
| 2026-05-03 22:26 | -15.86900 | -47.91778 | 3487 ft | 9 kts | 268° |
| 2026-05-03 22:27 | -15.86894 | -47.91831 | 3487 ft | 6 kts | 325° |
| 2026-05-03 22:27 | -15.86860 | -47.91837 | 3487 ft | 2 kts | 356° |
| 2026-05-03 22:27 | -15.86851 | -47.91838 | 3487 ft | 1 kts | 355° |
| 2026-05-03 22:27 | -15.86844 | -47.91839 | 3487 ft | 1 kts | 355° |
| 2026-05-03 22:28 | -15.86843 | -47.91839 | 3487 ft | 0 kts | 355° |
| 2026-05-03 22:29 | -15.86848 | -47.91838 | 3487 ft | 0 kts | 355° |
| 2026-05-03 22:29 | -15.86848 | -47.91839 | 3487 ft | 0 kts | 355° |
| 2026-05-03 22:30 | -15.86848 | -47.91838 | 3487 ft | 0 kts | 355° |